sensor_id;sensor_type;location;lat;lon;timestamp;P1;durP1;ratioP1;P2;durP2;ratioP2
80944;SDS011;70400;50.934;11.590;2024-03-07T00:00:18;15.48;;;7.68;;
80944;SDS011;70400;50.934;11.590;2024-03-07T00:01:09;17.17;;;7.97;;
80944;SDS011;70400;50.934;11.590;2024-03-07T00:02:00;14.23;;;8.07;;
80944;SDS011;70400;50.934;11.590;2024-03-07T00:02:51;16.95;;;8.57;;
80944;SDS011;70400;50.934;11.590;2024-03-07T00:03:43;19.05;;;8.38;;
80944;SDS011;70400;50.934;11.590;2024-03-07T00:04:34;16.10;;;9.30;;
80944;SDS011;70400;50.934;11.590;2024-03-07T00:05:26;16.27;;;8.23;;
80944;SDS011;70400;50.934;11.590;2024-03-07T00:07:08;15.45;;;8.27;;
80944;SDS011;70400;50.934;11.590;2024-03-07T00:07:59;16.52;;;8.73;;
80944;SDS011;70400;50.934;11.590;2024-03-07T00:08:50;19.60;;;9.88;;
80944;SDS011;70400;50.934;11.590;2024-03-07T00:09:42;23.98;;;8.43;;
80944;SDS011;70400;50.934;11.590;2024-03-07T00:10:35;15.68;;;7.72;;
80944;SDS011;70400;50.934;11.590;2024-03-07T00:11:30;16.48;;;7.72;;
80944;SDS011;70400;50.934;11.590;2024-03-07T00:12:21;16.20;;;7.70;;
80944;SDS011;70400;50.934;11.590;2024-03-07T00:13:13;17.38;;;8.65;;
80944;SDS011;70400;50.934;11.590;2024-03-07T00:14:04;15.45;;;8.30;;
80944;SDS011;70400;50.934;11.590;2024-03-07T00:14:56;16.35;;;8.45;;
80944;SDS011;70400;50.934;11.590;2024-03-07T00:15:47;15.65;;;7.97;;
80944;SDS011;70400;50.934;11.590;2024-03-07T00:16:38;17.05;;;9.07;;
80944;SDS011;70400;50.934;11.590;2024-03-07T00:17:29;18.35;;;8.30;;
80944;SDS011;70400;50.934;11.590;2024-03-07T00:18:20;14.30;;;8.02;;
80944;SDS011;70400;50.934;11.590;2024-03-07T00:19:11;15.55;;;8.25;;
80944;SDS011;70400;50.934;11.590;2024-03-07T00:20:05;16.52;;;8.18;;
80944;SDS011;70400;50.934;11.590;2024-03-07T00:21:00;15.23;;;8.32;;
80944;SDS011;70400;50.934;11.590;2024-03-07T00:21:50;16.27;;;8.20;;
80944;SDS011;70400;50.934;11.590;2024-03-07T00:22:41;16.83;;;8.77;;
80944;SDS011;70400;50.934;11.590;2024-03-07T00:23:32;17.80;;;9.35;;
80944;SDS011;70400;50.934;11.590;2024-03-07T00:24:24;16.80;;;8.43;;
80944;SDS011;70400;50.934;11.590;2024-03-07T00:25:15;16.52;;;8.90;;
80944;SDS011;70400;50.934;11.590;2024-03-07T00:26:10;16.55;;;8.38;;
80944;SDS011;70400;50.934;11.590;2024-03-07T00:27:01;19.35;;;10.80;;
80944;SDS011;70400;50.934;11.590;2024-03-07T00:27:52;20.05;;;8.85;;
80944;SDS011;70400;50.934;11.590;2024-03-07T00:28:44;19.52;;;8.48;;
80944;SDS011;70400;50.934;11.590;2024-03-07T00:29:35;19.42;;;8.45;;
80944;SDS011;70400;50.934;11.590;2024-03-07T00:30:28;19.48;;;9.80;;
80944;SDS011;70400;50.934;11.590;2024-03-07T00:31:20;21.17;;;9.40;;
80944;SDS011;70400;50.934;11.590;2024-03-07T00:32:10;20.58;;;9.65;;
80944;SDS011;70400;50.934;11.590;2024-03-07T00:33:05;22.25;;;10.25;;
80944;SDS011;70400;50.934;11.590;2024-03-07T00:33:56;19.27;;;9.48;;
80944;SDS011;70400;50.934;11.590;2024-03-07T00:35:02;18.90;;;9.50;;
80944;SDS011;70400;50.934;11.590;2024-03-07T00:35:53;19.80;;;9.52;;
80944;SDS011;70400;50.934;11.590;2024-03-07T00:36:46;19.08;;;9.55;;
80944;SDS011;70400;50.934;11.590;2024-03-07T00:37:38;17.98;;;8.98;;
80944;SDS011;70400;50.934;11.590;2024-03-07T00:38:29;20.20;;;9.30;;
80944;SDS011;70400;50.934;11.590;2024-03-07T00:39:20;18.58;;;8.75;;
80944;SDS011;70400;50.934;11.590;2024-03-07T00:40:11;20.25;;;9.18;;
80944;SDS011;70400;50.934;11.590;2024-03-07T00:41:02;19.48;;;9.15;;
80944;SDS011;70400;50.934;11.590;2024-03-07T00:41:53;19.27;;;9.60;;
80944;SDS011;70400;50.934;11.590;2024-03-07T00:42:44;19.13;;;9.18;;
80944;SDS011;70400;50.934;11.590;2024-03-07T00:43:35;18.58;;;8.68;;
80944;SDS011;70400;50.934;11.590;2024-03-07T00:44:26;16.10;;;8.20;;
80944;SDS011;70400;50.934;11.590;2024-03-07T00:45:17;14.30;;;8.55;;
80944;SDS011;70400;50.934;11.590;2024-03-07T00:46:08;18.67;;;9.43;;
80944;SDS011;70400;50.934;11.590;2024-03-07T00:46:59;28.17;;;8.57;;
80944;SDS011;70400;50.934;11.590;2024-03-07T00:47:50;18.80;;;8.95;;
80944;SDS011;70400;50.934;11.590;2024-03-07T00:48:41;15.10;;;8.38;;
80944;SDS011;70400;50.934;11.590;2024-03-07T00:49:31;23.98;;;8.50;;
80944;SDS011;70400;50.934;11.590;2024-03-07T00:50:22;18.95;;;8.68;;
80944;SDS011;70400;50.934;11.590;2024-03-07T00:51:13;18.63;;;9.40;;
80944;SDS011;70400;50.934;11.590;2024-03-07T00:52:06;21.83;;;9.73;;
80944;SDS011;70400;50.934;11.590;2024-03-07T00:52:57;19.15;;;10.18;;
80944;SDS011;70400;50.934;11.590;2024-03-07T00:53:47;23.88;;;9.23;;
80944;SDS011;70400;50.934;11.590;2024-03-07T00:54:39;17.98;;;8.85;;
80944;SDS011;70400;50.934;11.590;2024-03-07T00:55:30;17.60;;;8.70;;
80944;SDS011;70400;50.934;11.590;2024-03-07T00:56:21;15.02;;;8.32;;
80944;SDS011;70400;50.934;11.590;2024-03-07T00:57:12;19.02;;;8.73;;
80944;SDS011;70400;50.934;11.590;2024-03-07T00:58:03;16.75;;;9.25;;
80944;SDS011;70400;50.934;11.590;2024-03-07T00:58:55;20.13;;;10.40;;
80944;SDS011;70400;50.934;11.590;2024-03-07T01:00:38;17.13;;;9.07;;
80944;SDS011;70400;50.934;11.590;2024-03-07T01:01:33;17.30;;;8.30;;
80944;SDS011;70400;50.934;11.590;2024-03-07T01:02:26;19.17;;;9.38;;
80944;SDS011;70400;50.934;11.590;2024-03-07T01:03:17;19.25;;;10.48;;
80944;SDS011;70400;50.934;11.590;2024-03-07T01:04:08;19.25;;;10.05;;
80944;SDS011;70400;50.934;11.590;2024-03-07T01:04:59;20.60;;;9.43;;
80944;SDS011;70400;50.934;11.590;2024-03-07T01:05:50;18.38;;;9.27;;
80944;SDS011;70400;50.934;11.590;2024-03-07T01:06:42;18.73;;;9.25;;
80944;SDS011;70400;50.934;11.590;2024-03-07T01:07:33;18.85;;;9.40;;
80944;SDS011;70400;50.934;11.590;2024-03-07T01:08:25;23.50;;;9.95;;
80944;SDS011;70400;50.934;11.590;2024-03-07T01:09:16;18.52;;;9.05;;
80944;SDS011;70400;50.934;11.590;2024-03-07T01:10:09;18.83;;;9.32;;
80944;SDS011;70400;50.934;11.590;2024-03-07T01:11:00;21.25;;;10.60;;
80944;SDS011;70400;50.934;11.590;2024-03-07T01:11:51;19.10;;;9.77;;
80944;SDS011;70400;50.934;11.590;2024-03-07T01:12:42;19.83;;;9.43;;
80944;SDS011;70400;50.934;11.590;2024-03-07T01:13:33;18.25;;;9.82;;
80944;SDS011;70400;50.934;11.590;2024-03-07T01:14:24;21.50;;;10.48;;
80944;SDS011;70400;50.934;11.590;2024-03-07T01:15:15;19.15;;;9.93;;
80944;SDS011;70400;50.934;11.590;2024-03-07T01:16:06;26.10;;;9.90;;
80944;SDS011;70400;50.934;11.590;2024-03-07T01:16:57;20.77;;;10.18;;
80944;SDS011;70400;50.934;11.590;2024-03-07T01:17:48;18.58;;;9.52;;
80944;SDS011;70400;50.934;11.590;2024-03-07T01:18:42;19.23;;;8.57;;
80944;SDS011;70400;50.934;11.590;2024-03-07T01:19:33;19.40;;;9.73;;
80944;SDS011;70400;50.934;11.590;2024-03-07T01:20:24;17.25;;;9.13;;
80944;SDS011;70400;50.934;11.590;2024-03-07T01:21:15;20.13;;;10.20;;
80944;SDS011;70400;50.934;11.590;2024-03-07T01:22:06;19.80;;;8.93;;
80944;SDS011;70400;50.934;11.590;2024-03-07T01:22:58;20.30;;;9.38;;
80944;SDS011;70400;50.934;11.590;2024-03-07T01:23:49;18.13;;;9.48;;
80944;SDS011;70400;50.934;11.590;2024-03-07T01:24:40;17.88;;;9.07;;
80944;SDS011;70400;50.934;11.590;2024-03-07T01:25:30;19.23;;;9.55;;
80944;SDS011;70400;50.934;11.590;2024-03-07T01:26:24;20.42;;;9.48;;
80944;SDS011;70400;50.934;11.590;2024-03-07T01:27:15;16.67;;;8.45;;
80944;SDS011;70400;50.934;11.590;2024-03-07T01:28:06;19.40;;;8.32;;
80944;SDS011;70400;50.934;11.590;2024-03-07T01:28:57;18.73;;;9.35;;
80944;SDS011;70400;50.934;11.590;2024-03-07T01:29:48;17.65;;;9.48;;
80944;SDS011;70400;50.934;11.590;2024-03-07T01:30:39;21.42;;;10.13;;
80944;SDS011;70400;50.934;11.590;2024-03-07T01:31:30;19.67;;;9.45;;
80944;SDS011;70400;50.934;11.590;2024-03-07T01:32:21;19.08;;;9.60;;
80944;SDS011;70400;50.934;11.590;2024-03-07T01:33:12;17.85;;;9.32;;
80944;SDS011;70400;50.934;11.590;2024-03-07T01:34:03;19.80;;;9.23;;
80944;SDS011;70400;50.934;11.590;2024-03-07T01:34:56;22.27;;;9.02;;
80944;SDS011;70400;50.934;11.590;2024-03-07T01:35:49;18.85;;;8.77;;
80944;SDS011;70400;50.934;11.590;2024-03-07T01:36:40;17.73;;;9.68;;
80944;SDS011;70400;50.934;11.590;2024-03-07T01:37:32;16.90;;;8.77;;
80944;SDS011;70400;50.934;11.590;2024-03-07T01:38:22;20.15;;;9.60;;
80944;SDS011;70400;50.934;11.590;2024-03-07T01:39:13;22.98;;;9.77;;
80944;SDS011;70400;50.934;11.590;2024-03-07T01:40:04;19.25;;;9.77;;
80944;SDS011;70400;50.934;11.590;2024-03-07T01:40:55;18.25;;;9.55;;
80944;SDS011;70400;50.934;11.590;2024-03-07T01:41:47;19.73;;;9.40;;
80944;SDS011;70400;50.934;11.590;2024-03-07T01:42:38;16.80;;;8.70;;
80944;SDS011;70400;50.934;11.590;2024-03-07T01:43:29;19.73;;;9.35;;
80944;SDS011;70400;50.934;11.590;2024-03-07T01:44:22;16.10;;;8.77;;
80944;SDS011;70400;50.934;11.590;2024-03-07T01:45:13;19.70;;;9.93;;
80944;SDS011;70400;50.934;11.590;2024-03-07T01:46:04;20.38;;;9.88;;
80944;SDS011;70400;50.934;11.590;2024-03-07T01:46:55;20.48;;;10.77;;
80944;SDS011;70400;50.934;11.590;2024-03-07T01:47:46;18.38;;;9.25;;
80944;SDS011;70400;50.934;11.590;2024-03-07T01:48:39;20.15;;;9.73;;
80944;SDS011;70400;50.934;11.590;2024-03-07T01:49:31;20.33;;;9.80;;
80944;SDS011;70400;50.934;11.590;2024-03-07T01:50:22;19.17;;;9.50;;
80944;SDS011;70400;50.934;11.590;2024-03-07T01:51:14;19.45;;;9.55;;
80944;SDS011;70400;50.934;11.590;2024-03-07T01:52:05;19.08;;;10.30;;
80944;SDS011;70400;50.934;11.590;2024-03-07T01:52:57;17.23;;;9.25;;
80944;SDS011;70400;50.934;11.590;2024-03-07T01:53:57;19.13;;;9.93;;
80944;SDS011;70400;50.934;11.590;2024-03-07T01:56:30;19.20;;;9.40;;
80944;SDS011;70400;50.934;11.590;2024-03-07T01:57:21;17.45;;;9.20;;
80944;SDS011;70400;50.934;11.590;2024-03-07T01:58:11;19.48;;;10.15;;
80944;SDS011;70400;50.934;11.590;2024-03-07T01:59:06;19.40;;;10.65;;
80944;SDS011;70400;50.934;11.590;2024-03-07T01:59:58;19.10;;;10.10;;
80944;SDS011;70400;50.934;11.590;2024-03-07T02:00:58;21.17;;;9.95;;
80944;SDS011;70400;50.934;11.590;2024-03-07T02:01:50;21.63;;;10.95;;
80944;SDS011;70400;50.934;11.590;2024-03-07T02:02:42;18.73;;;9.40;;
80944;SDS011;70400;50.934;11.590;2024-03-07T02:03:34;24.90;;;11.38;;
80944;SDS011;70400;50.934;11.590;2024-03-07T02:04:27;23.45;;;10.55;;
80944;SDS011;70400;50.934;11.590;2024-03-07T02:05:20;20.98;;;9.27;;
80944;SDS011;70400;50.934;11.590;2024-03-07T02:06:11;21.60;;;9.68;;
80944;SDS011;70400;50.934;11.590;2024-03-07T02:07:02;22.42;;;9.60;;
80944;SDS011;70400;50.934;11.590;2024-03-07T02:07:53;20.50;;;9.30;;
80944;SDS011;70400;50.934;11.590;2024-03-07T02:08:44;22.95;;;11.27;;
80944;SDS011;70400;50.934;11.590;2024-03-07T02:09:35;21.45;;;9.70;;
80944;SDS011;70400;50.934;11.590;2024-03-07T02:10:26;20.00;;;9.80;;
80944;SDS011;70400;50.934;11.590;2024-03-07T02:11:17;20.27;;;9.85;;
80944;SDS011;70400;50.934;11.590;2024-03-07T02:12:08;21.10;;;9.60;;
80944;SDS011;70400;50.934;11.590;2024-03-07T02:12:59;19.63;;;9.38;;
80944;SDS011;70400;50.934;11.590;2024-03-07T02:14:41;19.90;;;10.35;;
80944;SDS011;70400;50.934;11.590;2024-03-07T02:15:32;26.20;;;10.27;;
80944;SDS011;70400;50.934;11.590;2024-03-07T02:16:23;22.25;;;9.80;;
80944;SDS011;70400;50.934;11.590;2024-03-07T02:17:14;19.35;;;10.80;;
80944;SDS011;70400;50.934;11.590;2024-03-07T02:18:05;20.27;;;10.73;;
80944;SDS011;70400;50.934;11.590;2024-03-07T02:18:56;19.83;;;10.50;;
80944;SDS011;70400;50.934;11.590;2024-03-07T02:19:49;23.17;;;10.45;;
80944;SDS011;70400;50.934;11.590;2024-03-07T02:20:44;22.13;;;10.98;;
80944;SDS011;70400;50.934;11.590;2024-03-07T02:21:35;20.58;;;9.95;;
80944;SDS011;70400;50.934;11.590;2024-03-07T02:22:26;20.08;;;10.32;;
80944;SDS011;70400;50.934;11.590;2024-03-07T02:23:17;18.45;;;9.98;;
80944;SDS011;70400;50.934;11.590;2024-03-07T02:24:10;20.10;;;10.23;;
80944;SDS011;70400;50.934;11.590;2024-03-07T02:25:01;22.08;;;10.45;;
80944;SDS011;70400;50.934;11.590;2024-03-07T02:25:52;21.55;;;11.27;;
80944;SDS011;70400;50.934;11.590;2024-03-07T02:26:43;22.40;;;10.25;;
80944;SDS011;70400;50.934;11.590;2024-03-07T02:27:34;20.63;;;9.93;;
80944;SDS011;70400;50.934;11.590;2024-03-07T02:28:25;18.52;;;9.50;;
80944;SDS011;70400;50.934;11.590;2024-03-07T02:29:16;19.00;;;9.75;;
80944;SDS011;70400;50.934;11.590;2024-03-07T02:30:07;21.95;;;10.13;;
80944;SDS011;70400;50.934;11.590;2024-03-07T02:30:59;22.33;;;9.50;;
80944;SDS011;70400;50.934;11.590;2024-03-07T02:31:50;22.60;;;10.10;;
80944;SDS011;70400;50.934;11.590;2024-03-07T02:32:43;20.42;;;10.43;;
80944;SDS011;70400;50.934;11.590;2024-03-07T02:33:39;22.30;;;10.13;;
80944;SDS011;70400;50.934;11.590;2024-03-07T02:34:30;20.83;;;10.23;;
80944;SDS011;70400;50.934;11.590;2024-03-07T02:35:21;24.88;;;9.93;;
80944;SDS011;70400;50.934;11.590;2024-03-07T02:36:14;18.00;;;9.70;;
80944;SDS011;70400;50.934;11.590;2024-03-07T02:37:05;20.52;;;9.95;;
80944;SDS011;70400;50.934;11.590;2024-03-07T02:37:56;22.98;;;10.45;;
80944;SDS011;70400;50.934;11.590;2024-03-07T02:38:47;25.15;;;10.48;;
80944;SDS011;70400;50.934;11.590;2024-03-07T02:39:38;22.00;;;10.55;;
80944;SDS011;70400;50.934;11.590;2024-03-07T02:40:29;20.35;;;10.10;;
80944;SDS011;70400;50.934;11.590;2024-03-07T02:41:21;20.95;;;9.40;;
80944;SDS011;70400;50.934;11.590;2024-03-07T02:42:12;18.73;;;9.75;;
80944;SDS011;70400;50.934;11.590;2024-03-07T02:43:03;20.40;;;9.85;;
80944;SDS011;70400;50.934;11.590;2024-03-07T02:43:56;21.40;;;9.57;;
80944;SDS011;70400;50.934;11.590;2024-03-07T02:44:47;20.98;;;10.55;;
80944;SDS011;70400;50.934;11.590;2024-03-07T02:45:38;18.48;;;9.70;;
80944;SDS011;70400;50.934;11.590;2024-03-07T02:46:28;20.65;;;9.95;;
80944;SDS011;70400;50.934;11.590;2024-03-07T02:47:19;19.90;;;9.95;;
80944;SDS011;70400;50.934;11.590;2024-03-07T02:48:10;19.77;;;10.23;;
80944;SDS011;70400;50.934;11.590;2024-03-07T02:49:02;21.15;;;10.07;;
80944;SDS011;70400;50.934;11.590;2024-03-07T02:49:53;18.30;;;9.75;;
80944;SDS011;70400;50.934;11.590;2024-03-07T02:50:46;18.30;;;9.13;;
80944;SDS011;70400;50.934;11.590;2024-03-07T02:53:01;22.70;;;9.93;;
80944;SDS011;70400;50.934;11.590;2024-03-07T02:53:53;21.95;;;9.52;;
80944;SDS011;70400;50.934;11.590;2024-03-07T02:54:44;20.33;;;10.30;;
80944;SDS011;70400;50.934;11.590;2024-03-07T02:55:35;24.38;;;10.40;;
80944;SDS011;70400;50.934;11.590;2024-03-07T02:56:26;21.35;;;10.30;;
80944;SDS011;70400;50.934;11.590;2024-03-07T02:57:17;18.55;;;9.70;;
80944;SDS011;70400;50.934;11.590;2024-03-07T02:58:08;22.55;;;10.90;;
80944;SDS011;70400;50.934;11.590;2024-03-07T02:58:59;19.83;;;9.27;;
80944;SDS011;70400;50.934;11.590;2024-03-07T02:59:53;21.27;;;10.82;;
80944;SDS011;70400;50.934;11.590;2024-03-07T03:00:44;21.13;;;11.52;;
80944;SDS011;70400;50.934;11.590;2024-03-07T03:01:35;24.42;;;10.32;;
80944;SDS011;70400;50.934;11.590;2024-03-07T03:02:26;25.45;;;11.48;;
80944;SDS011;70400;50.934;11.590;2024-03-07T03:03:17;22.70;;;11.35;;
80944;SDS011;70400;50.934;11.590;2024-03-07T03:04:08;19.20;;;10.02;;
80944;SDS011;70400;50.934;11.590;2024-03-07T03:04:59;21.38;;;10.02;;
80944;SDS011;70400;50.934;11.590;2024-03-07T03:05:50;22.63;;;10.73;;
80944;SDS011;70400;50.934;11.590;2024-03-07T03:06:41;21.67;;;10.73;;
80944;SDS011;70400;50.934;11.590;2024-03-07T03:07:32;20.77;;;10.85;;
80944;SDS011;70400;50.934;11.590;2024-03-07T03:08:23;23.02;;;10.52;;
80944;SDS011;70400;50.934;11.590;2024-03-07T03:09:14;19.83;;;10.32;;
80944;SDS011;70400;50.934;11.590;2024-03-07T03:10:07;22.42;;;10.60;;
80944;SDS011;70400;50.934;11.590;2024-03-07T03:11:01;30.08;;;11.70;;
80944;SDS011;70400;50.934;11.590;2024-03-07T03:11:52;24.65;;;11.10;;
80944;SDS011;70400;50.934;11.590;2024-03-07T03:12:43;27.75;;;12.27;;
80944;SDS011;70400;50.934;11.590;2024-03-07T03:13:34;26.55;;;12.35;;
80944;SDS011;70400;50.934;11.590;2024-03-07T03:14:28;25.50;;;11.60;;
80944;SDS011;70400;50.934;11.590;2024-03-07T03:15:19;26.75;;;13.02;;
80944;SDS011;70400;50.934;11.590;2024-03-07T03:16:13;25.67;;;11.32;;
80944;SDS011;70400;50.934;11.590;2024-03-07T03:17:04;25.98;;;12.20;;
80944;SDS011;70400;50.934;11.590;2024-03-07T03:17:54;28.30;;;11.70;;
80944;SDS011;70400;50.934;11.590;2024-03-07T03:18:50;27.05;;;12.85;;
80944;SDS011;70400;50.934;11.590;2024-03-07T03:19:41;30.30;;;12.25;;
80944;SDS011;70400;50.934;11.590;2024-03-07T03:20:32;26.90;;;11.88;;
80944;SDS011;70400;50.934;11.590;2024-03-07T03:21:29;32.00;;;13.55;;
80944;SDS011;70400;50.934;11.590;2024-03-07T03:22:20;32.92;;;13.77;;
80944;SDS011;70400;50.934;11.590;2024-03-07T03:23:11;40.22;;;14.20;;
80944;SDS011;70400;50.934;11.590;2024-03-07T03:24:11;43.65;;;14.98;;
80944;SDS011;70400;50.934;11.590;2024-03-07T03:25:01;37.67;;;14.43;;
80944;SDS011;70400;50.934;11.590;2024-03-07T03:25:52;32.85;;;15.23;;
80944;SDS011;70400;50.934;11.590;2024-03-07T03:26:44;34.10;;;13.95;;
80944;SDS011;70400;50.934;11.590;2024-03-07T03:27:35;34.17;;;14.88;;
80944;SDS011;70400;50.934;11.590;2024-03-07T03:28:26;36.97;;;15.52;;
80944;SDS011;70400;50.934;11.590;2024-03-07T03:29:20;31.15;;;13.52;;
80944;SDS011;70400;50.934;11.590;2024-03-07T03:30:11;46.53;;;15.98;;
80944;SDS011;70400;50.934;11.590;2024-03-07T03:31:06;40.92;;;14.95;;
80944;SDS011;70400;50.934;11.590;2024-03-07T03:31:58;32.25;;;14.65;;
80944;SDS011;70400;50.934;11.590;2024-03-07T03:32:50;38.42;;;13.50;;
80944;SDS011;70400;50.934;11.590;2024-03-07T03:33:41;36.90;;;14.55;;
80944;SDS011;70400;50.934;11.590;2024-03-07T03:34:32;41.40;;;15.80;;
80944;SDS011;70400;50.934;11.590;2024-03-07T03:35:24;42.95;;;17.45;;
80944;SDS011;70400;50.934;11.590;2024-03-07T03:36:15;41.00;;;16.42;;
80944;SDS011;70400;50.934;11.590;2024-03-07T03:37:06;46.17;;;17.33;;
80944;SDS011;70400;50.934;11.590;2024-03-07T03:37:59;35.90;;;14.95;;
80944;SDS011;70400;50.934;11.590;2024-03-07T03:39:42;41.38;;;15.40;;
80944;SDS011;70400;50.934;11.590;2024-03-07T03:40:33;40.20;;;14.90;;
80944;SDS011;70400;50.934;11.590;2024-03-07T03:41:25;41.40;;;16.58;;
80944;SDS011;70400;50.934;11.590;2024-03-07T03:42:15;41.20;;;16.55;;
80944;SDS011;70400;50.934;11.590;2024-03-07T03:43:06;42.50;;;15.77;;
80944;SDS011;70400;50.934;11.590;2024-03-07T03:43:57;41.70;;;18.10;;
80944;SDS011;70400;50.934;11.590;2024-03-07T03:44:49;42.22;;;16.35;;
80944;SDS011;70400;50.934;11.590;2024-03-07T03:45:47;36.22;;;15.32;;
80944;SDS011;70400;50.934;11.590;2024-03-07T03:46:39;44.50;;;15.63;;
80944;SDS011;70400;50.934;11.590;2024-03-07T03:47:29;41.47;;;17.00;;
80944;SDS011;70400;50.934;11.590;2024-03-07T03:48:20;48.50;;;17.08;;
80944;SDS011;70400;50.934;11.590;2024-03-07T03:49:11;35.65;;;16.77;;
80944;SDS011;70400;50.934;11.590;2024-03-07T03:50:05;46.80;;;17.98;;
80944;SDS011;70400;50.934;11.590;2024-03-07T03:50:57;41.05;;;16.60;;
80944;SDS011;70400;50.934;11.590;2024-03-07T03:53:06;42.55;;;16.35;;
80944;SDS011;70400;50.934;11.590;2024-03-07T03:54:49;45.50;;;17.10;;
80944;SDS011;70400;50.934;11.590;2024-03-07T03:55:40;48.95;;;18.60;;
80944;SDS011;70400;50.934;11.590;2024-03-07T03:56:30;46.40;;;17.58;;
80944;SDS011;70400;50.934;11.590;2024-03-07T03:58:13;45.35;;;17.23;;
80944;SDS011;70400;50.934;11.590;2024-03-07T03:59:04;46.22;;;16.83;;
80944;SDS011;70400;50.934;11.590;2024-03-07T03:59:57;47.88;;;17.88;;
80944;SDS011;70400;50.934;11.590;2024-03-07T04:00:48;52.55;;;19.20;;
80944;SDS011;70400;50.934;11.590;2024-03-07T04:01:39;59.75;;;20.83;;
80944;SDS011;70400;50.934;11.590;2024-03-07T04:02:30;50.25;;;18.27;;
80944;SDS011;70400;50.934;11.590;2024-03-07T04:03:21;58.15;;;20.55;;
80944;SDS011;70400;50.934;11.590;2024-03-07T04:04:12;64.50;;;19.67;;
80944;SDS011;70400;50.934;11.590;2024-03-07T04:05:03;45.78;;;18.35;;
80944;SDS011;70400;50.934;11.590;2024-03-07T04:05:54;51.65;;;19.75;;
80944;SDS011;70400;50.934;11.590;2024-03-07T04:06:48;46.03;;;18.52;;
80944;SDS011;70400;50.934;11.590;2024-03-07T04:07:39;45.13;;;18.38;;
80944;SDS011;70400;50.934;11.590;2024-03-07T04:08:32;51.13;;;18.88;;
80944;SDS011;70400;50.934;11.590;2024-03-07T04:09:23;47.80;;;18.85;;
80944;SDS011;70400;50.934;11.590;2024-03-07T04:10:14;55.10;;;19.02;;
80944;SDS011;70400;50.934;11.590;2024-03-07T04:11:07;60.08;;;20.77;;
80944;SDS011;70400;50.934;11.590;2024-03-07T04:12:01;61.00;;;19.75;;
80944;SDS011;70400;50.934;11.590;2024-03-07T04:12:52;51.60;;;19.52;;
80944;SDS011;70400;50.934;11.590;2024-03-07T04:13:45;53.55;;;18.85;;
80944;SDS011;70400;50.934;11.590;2024-03-07T04:14:39;52.83;;;19.17;;
80944;SDS011;70400;50.934;11.590;2024-03-07T04:15:31;59.40;;;21.02;;
80944;SDS011;70400;50.934;11.590;2024-03-07T04:16:27;52.03;;;20.08;;
80944;SDS011;70400;50.934;11.590;2024-03-07T04:17:18;54.63;;;19.10;;
80944;SDS011;70400;50.934;11.590;2024-03-07T04:18:11;54.95;;;19.92;;
80944;SDS011;70400;50.934;11.590;2024-03-07T04:19:02;54.08;;;19.08;;
80944;SDS011;70400;50.934;11.590;2024-03-07T04:19:53;58.35;;;20.45;;
80944;SDS011;70400;50.934;11.590;2024-03-07T04:20:45;60.10;;;20.50;;
80944;SDS011;70400;50.934;11.590;2024-03-07T04:21:35;53.50;;;22.40;;
80944;SDS011;70400;50.934;11.590;2024-03-07T04:23:18;60.83;;;21.40;;
80944;SDS011;70400;50.934;11.590;2024-03-07T04:24:09;51.63;;;18.85;;
80944;SDS011;70400;50.934;11.590;2024-03-07T04:25:00;60.13;;;19.55;;
80944;SDS011;70400;50.934;11.590;2024-03-07T04:25:52;54.50;;;20.20;;
80944;SDS011;70400;50.934;11.590;2024-03-07T04:26:43;58.53;;;20.88;;
80944;SDS011;70400;50.934;11.590;2024-03-07T04:27:34;61.15;;;20.25;;
80944;SDS011;70400;50.934;11.590;2024-03-07T04:28:27;67.05;;;21.45;;
80944;SDS011;70400;50.934;11.590;2024-03-07T04:29:18;55.45;;;20.00;;
80944;SDS011;70400;50.934;11.590;2024-03-07T04:30:11;56.03;;;18.65;;
80944;SDS011;70400;50.934;11.590;2024-03-07T04:31:03;59.35;;;20.13;;
80944;SDS011;70400;50.934;11.590;2024-03-07T04:32:38;66.43;;;20.52;;
80944;SDS011;70400;50.934;11.590;2024-03-07T04:33:33;59.75;;;21.42;;
80944;SDS011;70400;50.934;11.590;2024-03-07T04:34:23;49.22;;;18.67;;
80944;SDS011;70400;50.934;11.590;2024-03-07T04:35:15;54.72;;;19.05;;
80944;SDS011;70400;50.934;11.590;2024-03-07T04:36:09;45.40;;;20.17;;
80944;SDS011;70400;50.934;11.590;2024-03-07T04:37:00;56.53;;;19.77;;
80944;SDS011;70400;50.934;11.590;2024-03-07T04:37:56;57.30;;;19.83;;
80944;SDS011;70400;50.934;11.590;2024-03-07T04:38:48;56.55;;;20.15;;
80944;SDS011;70400;50.934;11.590;2024-03-07T04:39:39;57.15;;;18.23;;
80944;SDS011;70400;50.934;11.590;2024-03-07T04:40:30;53.80;;;19.98;;
80944;SDS011;70400;50.934;11.590;2024-03-07T04:41:20;54.38;;;19.38;;
80944;SDS011;70400;50.934;11.590;2024-03-07T04:42:11;60.60;;;18.35;;
80944;SDS011;70400;50.934;11.590;2024-03-07T04:43:02;53.42;;;19.98;;
80944;SDS011;70400;50.934;11.590;2024-03-07T04:43:53;56.10;;;19.40;;
80944;SDS011;70400;50.934;11.590;2024-03-07T04:44:44;51.38;;;18.40;;
80944;SDS011;70400;50.934;11.590;2024-03-07T04:45:35;56.85;;;20.90;;
80944;SDS011;70400;50.934;11.590;2024-03-07T04:46:29;61.65;;;21.63;;
80944;SDS011;70400;50.934;11.590;2024-03-07T04:47:21;60.25;;;19.42;;
80944;SDS011;70400;50.934;11.590;2024-03-07T04:48:12;60.55;;;22.17;;
80944;SDS011;70400;50.934;11.590;2024-03-07T04:49:03;59.80;;;19.70;;
80944;SDS011;70400;50.934;11.590;2024-03-07T04:49:55;59.53;;;21.95;;
80944;SDS011;70400;50.934;11.590;2024-03-07T04:50:46;58.92;;;20.48;;
80944;SDS011;70400;50.934;11.590;2024-03-07T04:51:37;55.83;;;20.67;;
80944;SDS011;70400;50.934;11.590;2024-03-07T04:52:31;57.15;;;20.05;;
80944;SDS011;70400;50.934;11.590;2024-03-07T04:53:25;55.63;;;20.80;;
80944;SDS011;70400;50.934;11.590;2024-03-07T04:54:16;58.30;;;20.58;;
80944;SDS011;70400;50.934;11.590;2024-03-07T04:55:08;65.72;;;21.80;;
80944;SDS011;70400;50.934;11.590;2024-03-07T04:56:00;62.33;;;22.17;;
80944;SDS011;70400;50.934;11.590;2024-03-07T04:56:52;57.20;;;19.63;;
80944;SDS011;70400;50.934;11.590;2024-03-07T04:57:44;54.20;;;21.80;;
80944;SDS011;70400;50.934;11.590;2024-03-07T04:58:35;65.18;;;21.08;;
80944;SDS011;70400;50.934;11.590;2024-03-07T04:59:26;56.85;;;20.70;;
80944;SDS011;70400;50.934;11.590;2024-03-07T05:00:17;58.72;;;20.55;;
80944;SDS011;70400;50.934;11.590;2024-03-07T05:01:10;60.58;;;20.48;;
80944;SDS011;70400;50.934;11.590;2024-03-07T05:02:01;53.47;;;20.33;;
80944;SDS011;70400;50.934;11.590;2024-03-07T05:02:54;61.65;;;21.63;;
80944;SDS011;70400;50.934;11.590;2024-03-07T05:03:45;59.63;;;20.85;;
80944;SDS011;70400;50.934;11.590;2024-03-07T05:04:36;63.35;;;22.10;;
80944;SDS011;70400;50.934;11.590;2024-03-07T05:05:28;59.88;;;20.00;;
80944;SDS011;70400;50.934;11.590;2024-03-07T05:06:18;59.53;;;21.95;;
80944;SDS011;70400;50.934;11.590;2024-03-07T05:07:09;57.10;;;21.13;;
80944;SDS011;70400;50.934;11.590;2024-03-07T05:08:00;64.30;;;21.67;;
80944;SDS011;70400;50.934;11.590;2024-03-07T05:08:51;63.08;;;21.95;;
80944;SDS011;70400;50.934;11.590;2024-03-07T05:09:42;58.60;;;22.27;;
80944;SDS011;70400;50.934;11.590;2024-03-07T05:10:33;59.53;;;20.75;;